x

Mt Desert Rock, Me (mdrm1) Weather Station

1:00pm - Sat 18th Nov 2017 All times are EST. -5 hours from GMT.

  • Wind
    3mph, 6mph gusts
  • Air Temp 38°f
  • Sea Pressure 1010.6mb
  • Mt Desert Rock, Me
  • Mt Desert Rock, Me

More Historic Weather Station data

Upgrade to MSW Pro to gain access to the past 30 days of data for over 8000 Wavebouys and Weather Stations around the globe.

Join

Comparision Forecast

View Surf forecast
   
Sat 11/18 1:00pm 3 6 mph 1010.6mb 38f
12:00pm 3 3 mph 1011.1mb 37f
11:00am 8 10 mph 1012.5mb 35f
10:00am 10 13 mph 1013.1mb 35f
9:00am 15 16 mph 1013.4mb 34f
8:00am 21 24 mph 1012.9mb 34f
7:00am 22 24 mph 1012.5mb 34f
6:00am 28 31 mph 1011.4mb 34f
5:00am 32 34 mph 1011.2mb 34f
4:00am 31 34 mph 1011.2mb 33f
3:00am 31 34 mph 1011.4mb 34f
2:00am 31 34 mph 1011.2mb 33f
1:00am 26 32 mph 1010.6mb 35f
12:00am 33 39 mph 1010.6mb 34f
Fri 11/17 11:00pm 31 36 mph 1010.9mb 34f
10:00pm 33 38 mph 1010.1mb 34f
9:00pm 33 39 mph 1010.4mb 34f
8:00pm 37 41 mph 1009.6mb 34f
7:00pm 33 39 mph 1009.1mb 34f
6:00pm 36 41 mph 1008.5mb 35f
5:00pm 33 38 mph 1007.7mb 37f
4:00pm 37 40 mph 1006.3mb 38f
3:00pm 30 33 mph 1005.7mb 38f
2:00pm 38 43 mph 1004.6mb 39f
1:00pm 37 43 mph 1004mb 40f
12:00pm 40 44 mph 1003.2mb 42f
11:00am 38 44 mph 1002.8mb 43f
10:00am 34 40 mph 1003mb 43f
9:00am 40 43 mph 1002.1mb 43f
8:00am 36 39 mph 1002mb 43f
7:00am 32 37 mph 1001.5mb 44f
6:00am 26 30 mph 1001mb 43f
5:00am 26 29 mph 1000.4mb 43f
4:00am 29 31 mph 1000mb 43f
3:00am 28 31 mph 1000.1mb 43f
2:00am 26 30 mph 1000mb 42f
1:00am 30 32 mph 999.6mb 41f
12:00am 26 29 mph 999.9mb 42f
Thu 11/16 11:00pm 24 26 mph 999.8mb 44f
10:00pm 24 26 mph 1000.9mb 43f
9:00pm 21 22 mph 1002.8mb 44f
8:00pm 6 7 mph 1004.1mb 45f
7:00pm 3 5 mph 1005.3mb 45f
6:00pm 2 3 mph 1006.6mb 45f
5:00pm  -  1 mph 1006.8mb 46f
4:00pm 9 11 mph 1008.6mb 47f
3:00pm 8 9 mph 1008.9mb 46f
2:00pm 11 13 mph 1009.4mb 46f
1:00pm 14 16 mph 1011.3mb 46f
12:00pm 20 21 mph 1012.2mb 46f
11:00am 13 14 mph 1013.8mb 45f
10:00am 8 9 mph 1015.5mb 44f
9:00am 5 6 mph 1016mb 44f
8:00am 6 8 mph 1017.2mb 43f
7:00am 6 7 mph 1017.6mb 43f
6:00am  -  1 mph 1018mb 42f
5:00am  -  3 mph 1018.6mb 42f
4:00am 5 6 mph 1019.2mb 41f
3:00am 7 8 mph 1019.6mb 41f
2:00am 2 5 mph 1019.8mb 40f
1:00am 5 7 mph 1020.1mb 40f
12:00am  -  1 mph 1020.6mb 42f
Wed 11/15 11:00pm 6 8 mph 1021.1mb 41f
10:00pm 17 20 mph 1021.2mb 41f
9:00pm 15 16 mph 1022.1mb 38f
8:00pm 13 16 mph 1023.1mb 38f
7:00pm 11 14 mph 1023.4mb 39f
6:00pm 8 10 mph 1023.5mb 38f
5:00pm 7 9 mph 1023.5mb 39f
4:00pm 10 14 mph 1023.6mb 38f
3:00pm 7 9 mph 1023.8mb 37f
2:00pm 7 9 mph 1023.9mb 37f
1:00pm 10 13 mph 1024.6mb 36f
12:00pm 8 11 mph 1025mb 35f
11:00am 13 15 mph 1025.7mb 35f
10:00am 11 15 mph 1026.6mb 34f
9:00am 17 20 mph 1026.8mb 34f
8:00am 23 26 mph 1026.7mb 34f
7:00am 24 26 mph 1026.5mb 35f
6:00am 16 20 mph 1026.6mb 35f
5:00am 15 17 mph 1026.3mb 35f
4:00am 16 20 mph 1025.9mb 35f
3:00am 14 17 mph 1025.9mb 36f
2:00am 17 21 mph 1025.9mb 37f
1:00am 20 23 mph 1025.8mb 37f
12:00am 20 23 mph 1026mb 37f
Tue 11/14 11:00pm 20 22 mph 1026.1mb 38f
10:00pm 20 22 mph 1026.2mb 38f
9:00pm 20 23 mph 1026.1mb 38f
8:00pm 21 24 mph 1026mb 39f